Time;durP1;ratioP1;P1;durP2;ratioP2;P2;SDS_P1;SDS_P2;PMS_P1;PMS_P2;Temp;Humidity;BMP_temperature;BMP_pressure;BME280_temperature;BME280_humidity;BME280_pressure;Samples;Min_cycle;Max_cycle;Signal;HPM_P1;HPM_P2
2023/04/07 00:00:38;;;;;;;;;;;;;;;6.71;88.39;99716.47;5078613;28;19924;-80
2023/04/07 00:03:05;;;;;;;;;;;;;;;6.73;87.62;99725.03;5078933;28;19924;-80
2023/04/07 00:05:31;;;;;;;;;;;;;;;6.75;88.40;99727.56;5079930;28;19995;-80
2023/04/07 00:07:56;;;;;;;;;;;;;;;6.73;87.84;99719.81;5078090;28;19959;-80
2023/04/07 00:10:22;;;;;;;;;;;;;;;6.66;87.74;99728.22;5084270;28;19916;-80
2023/04/07 00:12:47;;;;;;;;;;;;;;;6.61;88.40;99722.50;5077291;28;19920;-80
2023/04/07 00:15:12;;;;;;;;;;;;;;;6.52;88.97;99721.41;5080082;28;19928;-81
2023/04/07 00:17:38;;;;;;;;;;;;;;;6.47;89.77;99740.09;5078696;28;19964;-80
2023/04/07 00:20:03;;;;;;;;;;;;;;;6.36;90.57;99729.53;5061580;28;20245;-80
2023/04/07 00:22:28;;;;;;;;;;;;;;;6.15;91.48;99734.56;5059655;28;19920;-80
2023/04/07 00:24:54;;;;;;;;;;;;;;;6.06;92.37;99727.38;5081095;28;20272;-80
2023/04/07 00:27:19;;;;;;;;;;;;;;;5.85;93.41;99723.63;5078380;28;19916;-80
2023/04/07 00:29:45;;;;;;;;;;;;;;;5.76;93.55;99721.66;5079921;28;19912;-80
2023/04/07 00:32:11;;;;;;;;;;;;;;;5.75;93.62;99720.00;5043598;28;20007;-82
2023/04/07 00:34:36;;;;;;;;;;;;;;;5.81;92.83;99709.09;5078867;28;19999;-80
2023/04/07 00:37:02;;;;;;;;;;;;;;;5.72;94.25;99714.94;5079761;28;20006;-81
2023/04/07 00:39:27;;;;;;;;;;;;;;;5.82;93.29;99712.53;5059707;28;19916;-81
2023/04/07 00:41:53;;;;;;;;;;;;;;;5.82;94.30;99715.16;5080788;28;19916;-80
2023/04/07 00:44:18;;;;;;;;;;;;;;;5.73;94.25;99711.38;5064915;28;19916;-80
2023/04/07 00:46:45;;;;;;;;;;;;;;;5.77;94.03;99710.25;5080836;28;19924;-81
2023/04/07 00:49:12;;;;;;;;;;;;;;;5.79;93.35;99713.56;5083095;28;19912;-80
2023/04/07 00:51:37;;;;;;;;;;;;;;;5.81;93.49;99716.09;5081918;28;20367;-81
2023/04/07 00:54:02;;;;;;;;;;;;;;;5.77;94.08;99718.91;5081801;28;20003;-81
2023/04/07 00:56:28;;;;;;;;;;;;;;;5.67;94.92;99717.06;5065155;28;19919;-80
2023/04/07 00:58:54;;;;;;;;;;;;;;;5.60;95.37;99716.66;5077546;28;19916;-79
2023/04/07 01:01:25;;;;;;;;;;;;;;;5.60;95.86;99716.66;5078465;28;19934;-80
2023/04/07 01:03:57;;;;;;;;;;;;;;;5.58;94.82;99723.78;5078269;28;20514;-80
2023/04/07 01:06:25;;;;;;;;;;;;;;;5.59;94.99;99727.25;5095770;28;20310;-80
2023/04/07 01:09:15;;;;;;;;;;;;;;;5.59;94.02;99722.84;5066131;28;19947;-80
2023/04/07 01:11:40;;;;;;;;;;;;;;;5.62;92.80;99713.94;5066025;28;19915;-80
2023/04/07 01:14:08;;;;;;;;;;;;;;;5.67;92.74;99711.81;5063969;28;20391;-81
2023/04/07 01:16:49;;;;;;;;;;;;;;;5.63;93.27;99715.63;5063447;28;19963;-81
2023/04/07 01:19:19;;;;;;;;;;;;;;;5.69;92.50;99710.78;5065135;28;19916;-78
2023/04/07 01:21:53;;;;;;;;;;;;;;;5.54;94.18;99719.69;5065618;28;20062;-79
2023/04/07 01:24:37;;;;;;;;;;;;;;;5.47;95.64;99720.25;5080490;28;20479;-79
2023/04/07 01:27:17;;;;;;;;;;;;;;;5.48;94.38;99716.69;5081575;28;19920;-80
2023/04/07 01:29:47;;;;;;;;;;;;;;;5.53;93.05;99714.59;5079095;28;19927;-79
2023/04/07 01:32:13;;;;;;;;;;;;;;;5.45;93.05;99706.44;5080585;28;20069;-80
2023/04/07 01:34:39;;;;;;;;;;;;;;;5.44;92.78;99700.34;5081607;28;20268;-80
2023/04/07 01:37:06;;;;;;;;;;;;;;;5.48;92.65;99698.38;5097217;28;20371;-79
2023/04/07 01:39:32;;;;;;;;;;;;;;;5.54;92.13;99697.91;5062043;28;19916;-79
2023/04/07 01:42:01;;;;;;;;;;;;;;;5.53;93.16;99691.03;5083327;28;19928;-79
2023/04/07 01:44:26;;;;;;;;;;;;;;;5.07;95.33;99707.28;5082675;28;19934;-79
2023/04/07 01:46:52;;;;;;;;;;;;;;;5.01;96.68;99706.88;5079289;28;20368;-79
2023/04/07 01:49:18;;;;;;;;;;;;;;;4.76;97.38;99710.28;5082779;28;19970;-78
2023/04/07 01:51:49;;;;;;;;;;;;;;;4.72;98.75;99711.41;5065346;28;19924;-78
2023/04/07 01:54:14;;;;;;;;;;;;;;;4.76;99.06;99707.69;5085373;28;19923;-78
2023/04/07 01:56:39;;;;;;;;;;;;;;;4.81;98.50;99705.59;5078559;28;20022;-80
2023/04/07 01:59:05;;;;;;;;;;;;;;;4.83;97.99;99703.72;5061446;28;19915;-79
2023/04/07 02:01:31;;;;;;;;;;;;;;;4.70;98.48;99718.53;5080360;28;19959;-79
2023/04/07 02:04:04;;;;;;;;;;;;;;;4.64;99.67;99718.94;5080671;28;19916;-79
2023/04/07 02:06:40;;;;;;;;;;;;;;;4.61;99.81;99719.13;5079971;28;19917;-81
2023/04/07 02:09:06;;;;;;;;;;;;;;;4.60;99.67;99714.84;5081032;28;19973;-81
2023/04/07 02:11:33;;;;;;;;;;;;;;;4.35;100.00;99708.63;5064848;28;20014;-80
2023/04/07 02:14:03;;;;;;;;;;;;;;;4.28;100.00;99716.97;5062169;28;20262;-80
2023/04/07 02:16:32;;;;;;;;;;;;;;;4.24;100.00;99716.31;5063658;28;19923;-80
2023/04/07 02:18:59;;;;;;;;;;;;;;;4.32;100.00;99708.81;5063395;28;19916;-79
2023/04/07 02:21:25;;;;;;;;;;;;;;;4.28;100.00;99707.34;5061034;28;20080;-79
2023/04/07 02:23:51;;;;;;;;;;;;;;;4.33;100.00;99702.66;5064248;28;19920;-78
2023/04/07 02:26:16;;;;;;;;;;;;;;;4.37;100.00;99698.91;5061212;28;19923;-80
2023/04/07 02:28:42;;;;;;;;;;;;;;;4.44;100.00;99692.34;5081256;28;19916;-80
2023/04/07 02:31:08;;;;;;;;;;;;;;;4.45;100.00;99686.19;5062547;28;19916;-80
2023/04/07 02:33:34;;;;;;;;;;;;;;;4.42;100.00;99681.16;5080006;28;19916;-80
2023/04/07 02:35:59;;;;;;;;;;;;;;;4.48;100.00;99685.97;5081381;28;19919;-79
2023/04/07 02:38:26;;;;;;;;;;;;;;;4.36;100.00;99689.38;5060884;28;19919;-79
2023/04/07 02:40:52;;;;;;;;;;;;;;;4.09;100.00;99691.19;5084895;28;19920;-79
2023/04/07 02:43:19;;;;;;;;;;;;;;;3.89;100.00;99689.03;5079135;28;19957;-79
2023/04/07 02:45:45;;;;;;;;;;;;;;;3.93;100.00;99687.88;5081458;28;19924;-80
2023/04/07 02:48:10;;;;;;;;;;;;;;;4.04;100.00;99682.81;5061983;28;20372;-80
2023/04/07 02:50:35;;;;;;;;;;;;;;;4.09;100.00;99675.53;5061519;28;19960;-81
2023/04/07 02:53:01;;;;;;;;;;;;;;;3.97;100.00;99673.69;5062961;28;19922;-80
2023/04/07 02:55:26;;;;;;;;;;;;;;;4.06;100.00;99673.13;5060677;28;19917;-79
2023/04/07 02:57:52;;;;;;;;;;;;;;;4.13;100.00;99671.75;5064727;28;19923;-79
2023/04/07 03:00:28;;;;;;;;;;;;;;;4.14;100.00;99673.44;5061981;28;20421;-79
2023/04/07 03:03:06;;;;;;;;;;;;;;;4.17;100.00;99656.75;5063350;28;19916;-81
2023/04/07 03:05:34;;;;;;;;;;;;;;;4.15;100.00;99648.16;5061899;28;19917;-80
2023/04/07 03:08:02;;;;;;;;;;;;;;;4.12;100.00;99650.03;5063777;28;19927;-80
2023/04/07 03:10:28;;;;;;;;;;;;;;;4.17;100.00;99646.31;5063445;28;19916;-80
2023/04/07 03:12:53;;;;;;;;;;;;;;;4.01;100.00;99641.22;5081805;28;19923;-80
2023/04/07 03:15:19;;;;;;;;;;;;;;;3.78;100.00;99644.47;5060598;28;20295;-79
2023/04/07 03:17:46;;;;;;;;;;;;;;;3.64;100.00;99648.81;5063636;28;19916;-80
2023/04/07 03:20:12;;;;;;;;;;;;;;;3.63;100.00;99649.75;5079347;28;19916;-80
2023/04/07 03:22:37;;;;;;;;;;;;;;;3.26;100.00;99663.41;5061527;28;19916;-80
2023/04/07 03:25:05;;;;;;;;;;;;;;;3.00;100.00;99661.56;5078047;28;19916;-81
2023/04/07 03:27:31;;;;;;;;;;;;;;;2.85;100.00;99666.75;5062345;28;20348;-81
2023/04/07 03:29:57;;;;;;;;;;;;;;;2.62;100.00;99672.47;5060419;28;19916;-81
2023/04/07 03:32:24;;;;;;;;;;;;;;;2.56;100.00;99667.63;5063665;28;19920;-81
2023/04/07 03:34:50;;;;;;;;;;;;;;;2.45;100.00;99664.81;5043313;28;19927;-80
2023/04/07 03:37:16;;;;;;;;;;;;;;;2.45;100.00;99663.03;5062642;28;19916;-80
2023/04/07 03:39:42;;;;;;;;;;;;;;;2.45;100.00;99659.59;5060456;28;19915;-80
2023/04/07 03:42:22;;;;;;;;;;;;;;;2.39;100.00;99649.53;5063552;28;20399;-80
2023/04/07 03:44:51;;;;;;;;;;;;;;;2.40;100.00;99651.22;5077887;28;19923;-80
2023/04/07 03:47:16;;;;;;;;;;;;;;;2.44;100.00;99647.50;5063167;28;19927;-80
2023/04/07 03:49:47;;;;;;;;;;;;;;;2.51;100.00;99654.03;5060013;28;20254;-80
2023/04/07 03:52:12;;;;;;;;;;;;;;;2.55;100.00;99655.53;5062182;28;19928;-80
2023/04/07 03:54:38;;;;;;;;;;;;;;;2.59;100.00;99657.03;5060588;28;19916;-80
2023/04/07 03:57:05;;;;;;;;;;;;;;;2.76;100.00;99654.28;5060937;28;19967;-80
2023/04/07 03:59:34;;;;;;;;;;;;;;;2.95;100.00;99653.97;5061629;28;20365;-79
2023/04/07 04:02:02;;;;;;;;;;;;;;;3.08;100.00;99648.88;5061143;28;19920;-80
2023/04/07 04:04:28;;;;;;;;;;;;;;;3.14;100.00;99644.13;5062513;28;19916;-80
2023/04/07 04:06:54;;;;;;;;;;;;;;;3.27;100.00;99639.84;5059681;28;20341;-80
2023/04/07 04:09:28;;;;;;;;;;;;;;;3.41;100.00;99641.59;5059738;28;19970;-80
2023/04/07 04:11:53;;;;;;;;;;;;;;;3.51;100.00;99640.09;5050111;28;19928;-80
2023/04/07 04:14:19;;;;;;;;;;;;;;;3.50;100.00;99643.63;5059843;28;19916;-79
2023/04/07 04:16:54;;;;;;;;;;;;;;;3.55;100.00;99638.94;5063088;28;20445;-80
2023/04/07 04:19:25;;;;;;;;;;;;;;;3.60;100.00;99636.88;5062777;28;19981;-80
2023/04/07 04:21:51;;;;;;;;;;;;;;;3.51;100.00;99632.25;5100723;28;19920;-80
2023/04/07 04:24:19;;;;;;;;;;;;;;;3.59;100.00;99639.59;5063547;28;20386;-80
2023/04/07 04:26:46;;;;;;;;;;;;;;;3.63;100.00;99641.91;5065660;28;20264;-81
2023/04/07 04:29:14;;;;;;;;;;;;;;;3.61;100.00;99638.56;5064198;28;19920;-81
2023/04/07 04:31:41;;;;;;;;;;;;;;;3.15;100.00;99639.75;5065175;28;19916;-80
2023/04/07 04:34:08;;;;;;;;;;;;;;;2.98;100.00;99652.97;5064908;28;20022;-80
2023/04/07 04:36:33;;;;;;;;;;;;;;;2.79;100.00;99646.25;5082518;28;20038;-80
2023/04/07 04:39:03;;;;;;;;;;;;;;;2.65;100.00;99656.66;5065516;28;20547;-80
2023/04/07 04:41:30;;;;;;;;;;;;;;;2.60;100.00;99650.03;5066786;28;19923;-80
2023/04/07 04:43:56;;;;;;;;;;;;;;;2.78;100.00;99647.19;5066363;28;19916;-80
2023/04/07 04:46:23;;;;;;;;;;;;;;;2.92;100.00;99651.56;5066730;28;20466;-80
2023/04/07 04:48:50;;;;;;;;;;;;;;;2.97;100.00;99657.34;5062818;28;19995;-80
2023/04/07 04:51:17;;;;;;;;;;;;;;;3.07;100.00;99655.00;5066448;28;19965;-80
2023/04/07 04:53:47;;;;;;;;;;;;;;;3.15;100.00;99655.41;5063110;28;19917;-81
2023/04/07 04:56:12;;;;;;;;;;;;;;;3.10;100.00;99652.22;5072190;28;19952;-80
2023/04/07 04:58:44;;;;;;;;;;;;;;;3.08;100.00;99654.09;5063986;28;19916;-78
2023/04/07 05:01:12;;;;;;;;;;;;;;;3.07;100.00;99657.63;5063762;28;19927;-80
2023/04/07 05:03:47;;;;;;;;;;;;;;;3.02;100.00;99654.44;5086651;28;20403;-80
2023/04/07 05:06:18;;;;;;;;;;;;;;;2.93;100.00;99647.22;5068239;28;19923;-79
2023/04/07 05:08:46;;;;;;;;;;;;;;;2.98;100.00;99658.19;5066554;28;19916;-79
2023/04/07 05:11:13;;;;;;;;;;;;;;;3.09;100.00;99660.97;5065676;28;19974;-80
2023/04/07 05:13:39;;;;;;;;;;;;;;;3.11;100.00;99654.75;5067238;28;19983;-80
2023/04/07 05:16:05;;;;;;;;;;;;;;;3.03;100.00;99650.91;5085858;28;19947;-79
2023/04/07 05:18:31;;;;;;;;;;;;;;;2.79;100.00;99653.25;5067024;28;19963;-80
2023/04/07 05:20:57;;;;;;;;;;;;;;;2.84;100.00;99652.03;5087341;28;19916;-80
2023/04/07 05:23:24;;;;;;;;;;;;;;;2.97;100.00;99646.09;5065458;28;19969;-80
2023/04/07 05:25:50;;;;;;;;;;;;;;;3.12;100.00;99651.19;5052104;28;20288;-79
2023/04/07 05:28:17;;;;;;;;;;;;;;;3.24;100.00;99655.66;5069872;28;20010;-80
2023/04/07 05:30:42;;;;;;;;;;;;;;;3.36;100.00;99659.28;5083728;28;20002;-80
2023/04/07 05:33:08;;;;;;;;;;;;;;;3.44;100.00;99651.81;5064921;28;19952;-80
2023/04/07 05:35:53;;;;;;;;;;;;;;;3.51;100.00;99660.13;5069448;28;19916;-79
2023/04/07 05:38:18;;;;;;;;;;;;;;;3.60;100.00;99668.19;5083903;28;20281;-80
2023/04/07 05:40:45;;;;;;;;;;;;;;;3.61;100.00;99655.97;5067519;28;19915;-81
2023/04/07 05:43:17;;;;;;;;;;;;;;;3.64;100.00;99648.81;5065309;28;20339;-80
2023/04/07 05:45:42;;;;;;;;;;;;;;;3.59;100.00;99650.84;5085211;28;19934;-80
2023/04/07 05:48:09;;;;;;;;;;;;;;;3.63;100.00;99654.13;5068126;28;19911;-79
2023/04/07 05:50:40;;;;;;;;;;;;;;;3.59;100.00;99643.03;5066626;28;19923;-79
2023/04/07 05:53:09;;;;;;;;;;;;;;;3.52;100.00;99644.38;5066515;28;19973;-81
2023/04/07 05:55:35;;;;;;;;;;;;;;;3.40;100.00;99645.13;5066255;28;20356;-79
2023/04/07 05:58:02;;;;;;;;;;;;;;;3.18;100.00;99652.63;5064166;28;19964;-80
2023/04/07 06:00:30;;;;;;;;;;;;;;;2.96;100.00;99655.66;5068167;28;20367;-79
2023/04/07 06:03:02;;;;;;;;;;;;;;;2.97;100.00;99640.88;5064240;28;19920;-80
2023/04/07 06:05:33;;;;;;;;;;;;;;;2.95;100.00;99637.50;5069002;28;20028;-79
2023/04/07 06:07:59;;;;;;;;;;;;;;;3.13;100.00;99642.44;5064240;28;20367;-80
2023/04/07 06:10:26;;;;;;;;;;;;;;;3.31;100.00;99635.25;5080507;28;19916;-80
2023/04/07 06:12:52;;;;;;;;;;;;;;;3.47;100.00;99636.00;5082038;28;19916;-79
2023/04/07 06:15:17;;;;;;;;;;;;;;;3.60;100.00;99633.44;5085190;28;20017;-80
2023/04/07 06:17:44;;;;;;;;;;;;;;;3.60;100.00;99636.03;5065204;28;20018;-79
2023/04/07 06:20:10;;;;;;;;;;;;;;;3.59;100.00;99637.81;5066723;28;19941;-80
2023/04/07 06:22:36;;;;;;;;;;;;;;;3.74;100.00;99637.78;5081798;28;19916;-80
2023/04/07 06:25:01;;;;;;;;;;;;;;;3.88;100.00;99640.34;5051254;28;19912;-80
2023/04/07 06:27:27;;;;;;;;;;;;;;;3.96;100.00;99638.06;5067449;28;19916;-80
2023/04/07 06:29:52;;;;;;;;;;;;;;;4.08;100.00;99632.06;5065110;28;20022;-80
2023/04/07 06:32:19;;;;;;;;;;;;;;;4.28;100.00;99629.00;5071505;28;20293;-80
2023/04/07 06:34:44;;;;;;;;;;;;;;;4.50;100.00;99629.22;5063103;28;20342;-80
2023/04/07 06:37:10;;;;;;;;;;;;;;;4.73;100.00;99632.06;5079912;28;19916;-80
2023/04/07 06:39:37;;;;;;;;;;;;;;;4.91;100.00;99638.66;5065414;28;20395;-80
2023/04/07 06:42:02;;;;;;;;;;;;;;;5.08;100.00;99640.94;5085118;28;19964;-80
2023/04/07 06:44:34;;;;;;;;;;;;;;;5.24;100.00;99640.75;5067343;28;19927;-79
2023/04/07 06:46:59;;;;;;;;;;;;;;;5.39;100.00;99639.66;5080732;28;19969;-79
2023/04/07 06:49:24;;;;;;;;;;;;;;;5.55;100.00;99634.16;5065977;28;20371;-80
2023/04/07 06:51:50;;;;;;;;;;;;;;;5.64;100.00;99644.00;5082175;28;19920;-80
2023/04/07 06:54:15;;;;;;;;;;;;;;;5.77;100.00;99647.41;5084627;28;19915;-80
2023/04/07 06:56:41;;;;;;;;;;;;;;;5.91;100.00;99647.25;5081069;28;19923;-78
2023/04/07 06:59:07;;;;;;;;;;;;;;;6.05;100.00;99654.13;5085250;28;19951;-80
2023/04/07 07:01:33;;;;;;;;;;;;;;;6.15;100.00;99645.47;5080822;28;19923;-80
2023/04/07 07:03:59;;;;;;;;;;;;;;;6.28;100.00;99644.56;5084630;28;20415;-78
2023/04/07 07:06:25;;;;;;;;;;;;;;;6.37;100.00;99649.13;5063618;28;20002;-80
2023/04/07 07:08:51;;;;;;;;;;;;;;;6.44;100.00;99645.94;5085329;28;20099;-81
2023/04/07 07:11:16;;;;;;;;;;;;;;;6.56;100.00;99636.31;5081793;28;20505;-79
2023/04/07 07:13:41;;;;;;;;;;;;;;;6.68;100.00;99637.19;5083758;28;19920;-79
2023/04/07 07:16:07;;;;;;;;;;;;;;;6.81;100.00;99628.28;5080160;28;19915;-80
2023/04/07 07:18:32;;;;;;;;;;;;;;;6.96;100.00;99631.50;5083360;28;19915;-80
2023/04/07 07:20:58;;;;;;;;;;;;;;;7.09;100.00;99615.66;5081755;28;20344;-79
2023/04/07 07:23:23;;;;;;;;;;;;;;;7.19;100.00;99614.81;5085247;28;19919;-80
2023/04/07 07:25:48;;;;;;;;;;;;;;;7.24;100.00;99619.72;5080743;28;19988;-79
2023/04/07 07:28:14;;;;;;;;;;;;;;;7.37;100.00;99615.16;5084018;28;19916;-79
2023/04/07 07:30:42;;;;;;;;;;;;;;;7.46;100.00;99619.69;5080602;28;19916;-79
2023/04/07 07:33:08;;;;;;;;;;;;;;;7.59;100.00;99619.56;5084149;28;19916;-78
2023/04/07 07:35:33;;;;;;;;;;;;;;;7.75;100.00;99610.31;5078938;28;19920;-79
2023/04/07 07:37:59;;;;;;;;;;;;;;;7.88;100.00;99615.44;5084014;28;19916;-79
2023/04/07 07:40:25;;;;;;;;;;;;;;;7.98;100.00;99610.25;5081694;28;20019;-79
2023/04/07 07:42:50;;;;;;;;;;;;;;;8.12;100.00;99617.84;5083412;28;20442;-79
2023/04/07 07:45:18;;;;;;;;;;;;;;;8.23;100.00;99616.00;5080773;28;19916;-79
2023/04/07 07:47:44;;;;;;;;;;;;;;;8.37;99.80;99612.25;5080778;28;20217;-79
2023/04/07 07:50:09;;;;;;;;;;;;;;;8.44;100.00;99610.78;5083501;28;20034;-78
2023/04/07 07:52:35;;;;;;;;;;;;;;;8.58;100.00;99612.28;5082917;28;19916;-78
2023/04/07 07:55:00;;;;;;;;;;;;;;;8.73;100.00;99612.75;5081357;28;19920;-79
2023/04/07 07:57:26;;;;;;;;;;;;;;;8.86;100.00;99610.75;5082997;28;20359;-79
2023/04/07 07:59:52;;;;;;;;;;;;;;;9.00;100.00;99615.69;5084747;28;19919;-80
2023/04/07 08:02:17;;;;;;;;;;;;;;;9.06;100.00;99615.16;5088178;28;20372;-79
2023/04/07 08:04:43;;;;;;;;;;;;;;;9.15;100.00;99613.53;5084231;28;20020;-80
2023/04/07 08:07:10;;;;;;;;;;;;;;;9.27;100.00;99602.78;5088048;28;19995;-79
2023/04/07 08:09:36;;;;;;;;;;;;;;;9.39;100.00;99612.25;5084020;28;20277;-80
2023/04/07 08:12:02;;;;;;;;;;;;;;;9.49;100.00;99601.72;5090509;28;19934;-79
2023/04/07 08:14:28;;;;;;;;;;;;;;;9.53;100.00;99607.56;5085032;28;20019;-80
2023/04/07 08:16:53;;;;;;;;;;;;;;;9.60;100.00;99608.72;5088459;28;19924;-80
2023/04/07 08:19:18;;;;;;;;;;;;;;;9.70;100.00;99605.13;5085106;28;20682;-78
2023/04/07 08:21:44;;;;;;;;;;;;;;;9.79;100.00;99599.00;5087471;28;19942;-79
2023/04/07 08:24:09;;;;;;;;;;;;;;;9.92;100.00;99604.03;5084115;28;20415;-79
2023/04/07 08:26:35;;;;;;;;;;;;;;;10.09;100.00;99595.44;5086904;28;20003;-79
2023/04/07 08:29:00;;;;;;;;;;;;;;;10.26;100.00;99591.28;5084356;28;19956;-79
2023/04/07 08:31:26;;;;;;;;;;;;;;;10.40;100.00;99582.97;5083764;28;20310;-80
2023/04/07 08:33:56;;;;;;;;;;;;;;;10.55;100.00;99585.97;5084813;28;19966;-80
2023/04/07 08:36:21;;;;;;;;;;;;;;;10.71;100.00;99574.84;5088041;28;19916;-80
2023/04/07 08:38:47;;;;;;;;;;;;;;;10.82;100.00;99567.59;5084016;28;19919;-79
2023/04/07 08:41:16;;;;;;;;;;;;;;;10.93;100.00;99564.78;5087490;28;19923;-79
2023/04/07 08:43:42;;;;;;;;;;;;;;;11.02;100.00;99563.91;5083373;28;19912;-80
2023/04/07 08:46:08;;;;;;;;;;;;;;;11.11;100.00;99566.66;5083314;28;20368;-79
2023/04/07 08:48:36;;;;;;;;;;;;;;;11.16;100.00;99559.94;5083551;28;19920;-78
2023/04/07 08:51:05;;;;;;;;;;;;;;;11.28;100.00;99552.66;5083223;28;20409;-80
2023/04/07 08:53:36;;;;;;;;;;;;;;;11.43;100.00;99561.75;5084817;28;19923;-79
2023/04/07 08:56:02;;;;;;;;;;;;;;;11.61;100.00;99565.25;5084604;28;19962;-79
2023/04/07 08:58:29;;;;;;;;;;;;;;;11.78;100.00;99567.09;5066805;28;19920;-79
2023/04/07 09:00:54;;;;;;;;;;;;;;;11.94;100.00;99573.56;5084676;28;19916;-79
2023/04/07 09:03:21;;;;;;;;;;;;;;;12.05;100.00;99562.75;5089799;28;19947;-78
2023/04/07 09:05:48;;;;;;;;;;;;;;;12.07;100.00;99566.09;5084266;28;19916;-79
2023/04/07 09:08:13;;;;;;;;;;;;;;;12.11;100.00;99556.84;5084419;28;19927;-78
2023/04/07 09:10:39;;;;;;;;;;;;;;;12.19;100.00;99559.56;5087132;28;19972;-79
2023/04/07 09:13:04;;;;;;;;;;;;;;;12.36;100.00;99550.78;5087407;28;20015;-79
2023/04/07 09:15:30;;;;;;;;;;;;;;;12.46;100.00;99546.22;5086981;28;19923;-81
2023/04/07 09:17:56;;;;;;;;;;;;;;;12.48;100.00;99549.53;5084458;28;19931;-79
2023/04/07 09:20:22;;;;;;;;;;;;;;;12.53;100.00;99541.97;5087884;28;19916;-79
2023/04/07 09:22:49;;;;;;;;;;;;;;;12.66;100.00;99547.66;5082560;28;19915;-79
2023/04/07 09:25:18;;;;;;;;;;;;;;;12.91;100.00;99542.50;5087407;28;19916;-80
2023/04/07 09:28:16;;;;;;;;;;;;;;;13.06;100.00;99538.28;5082662;28;20019;-81
2023/04/07 09:30:51;;;;;;;;;;;;;;;13.16;100.00;99533.72;5031785;28;19916;-80
2023/04/07 09:33:25;;;;;;;;;;;;;;;13.27;100.00;99529.94;5085912;28;19916;-81
2023/04/07 09:35:52;;;;;;;;;;;;;;;13.36;100.00;99529.81;5082161;28;20031;-79
2023/04/07 09:38:17;;;;;;;;;;;;;;;13.47;100.00;99526.88;5086313;28;19922;-80
2023/04/07 09:40:42;;;;;;;;;;;;;;;13.58;100.00;99515.13;5082239;28;19920;-80
2023/04/07 09:43:13;;;;;;;;;;;;;;;13.69;100.00;99513.97;5084848;28;20367;-80
2023/04/07 09:45:39;;;;;;;;;;;;;;;13.77;100.00;99521.94;5081808;28;19920;-80
2023/04/07 09:48:05;;;;;;;;;;;;;;;13.76;100.00;99520.28;5085337;28;19970;-80
2023/04/07 09:50:35;;;;;;;;;;;;;;;13.80;100.00;99516.31;5084270;28;19916;-81
2023/04/07 09:53:01;;;;;;;;;;;;;;;13.82;100.00;99515.16;5085535;28;20007;-81
2023/04/07 09:55:27;;;;;;;;;;;;;;;13.86;100.00;99519.13;5082988;28;20253;-80
2023/04/07 09:57:54;;;;;;;;;;;;;;;13.82;100.00;99514.31;5082155;28;19930;-81
2023/04/07 10:00:20;;;;;;;;;;;;;;;13.74;100.00;99509.84;5082270;28;19912;-79
2023/04/07 10:02:46;;;;;;;;;;;;;;;13.77;100.00;99512.19;5083744;28;19931;-80
2023/04/07 10:05:12;;;;;;;;;;;;;;;13.82;100.00;99504.56;5085408;28;19916;-80
2023/04/07 10:07:37;;;;;;;;;;;;;;;13.85;100.00;99506.88;5084301;28;19935;-80
2023/04/07 10:10:03;;;;;;;;;;;;;;;13.74;100.00;99506.34;5083544;28;19920;-80
2023/04/07 10:12:30;;;;;;;;;;;;;;;13.71;100.00;99501.38;5097115;28;20406;-80
2023/04/07 10:14:57;;;;;;;;;;;;;;;13.57;100.00;99502.03;5082391;28;19942;-81
2023/04/07 10:17:23;;;;;;;;;;;;;;;13.54;100.00;99505.84;5078750;28;19916;-80
2023/04/07 10:19:49;;;;;;;;;;;;;;;13.51;100.00;99503.50;5085203;28;19916;-79
2023/04/07 10:22:16;;;;;;;;;;;;;;;13.48;100.00;99496.72;5085891;28;19916;-80
2023/04/07 10:24:54;;;;;;;;;;;;;;;13.39;100.00;99492.38;5083951;28;19916;-80
2023/04/07 10:27:41;;;;;;;;;;;;;;;13.37;100.00;99494.34;5081401;28;19916;-80
2023/04/07 10:30:12;;;;;;;;;;;;;;;13.39;100.00;99486.25;5082379;28;20375;-81
2023/04/07 10:32:51;;;;;;;;;;;;;;;13.35;100.00;99501.66;5083295;28;19962;-79
2023/04/07 10:35:16;;;;;;;;;;;;;;;13.30;100.00;99498.66;5086118;28;19916;-80
2023/04/07 10:38:02;;;;;;;;;;;;;;;13.18;100.00;99497.31;5082964;28;19930;-81
2023/04/07 10:40:27;;;;;;;;;;;;;;;13.15;100.00;99500.25;5082477;28;20007;-80
2023/04/07 10:42:53;;;;;;;;;;;;;;;13.13;100.00;99496.13;5085284;28;20419;-79
2023/04/07 10:45:38;;;;;;;;;;;;;;;13.12;100.00;99500.59;5081189;28;19939;-79
2023/04/07 10:48:04;;;;;;;;;;;;;;;13.07;100.00;99490.44;5084591;28;19920;-79
2023/04/07 10:50:29;;;;;;;;;;;;;;;13.08;100.00;99488.59;5082567;28;20420;-79
2023/04/07 10:53:07;;;;;;;;;;;;;;;13.07;100.00;99492.25;5085346;28;19943;-80
2023/04/07 10:55:52;;;;;;;;;;;;;;;13.08;100.00;99485.94;5080246;28;19951;-80
2023/04/07 10:58:24;;;;;;;;;;;;;;;13.06;100.00;99480.00;5080714;28;19916;-80
2023/04/07 11:01:13;;;;;;;;;;;;;;;13.05;100.00;99483.63;5066894;28;20330;-81
2023/04/07 11:03:39;;;;;;;;;;;;;;;13.01;100.00;99484.97;5075253;28;19931;-81
2023/04/07 11:06:08;;;;;;;;;;;;;;;13.04;100.00;99484.63;5067411;28;19916;-80
2023/04/07 11:08:41;;;;;;;;;;;;;;;13.05;100.00;99478.34;5085905;28;20006;-81
2023/04/07 11:11:10;;;;;;;;;;;;;;;13.16;100.00;99474.59;5086345;28;19991;-80
2023/04/07 11:13:39;;;;;;;;;;;;;;;13.24;100.00;99478.09;5089303;28;19959;-80
2023/04/07 11:16:05;;;;;;;;;;;;;;;13.16;100.00;99487.84;5087293;28;19924;-80
2023/04/07 11:18:30;;;;;;;;;;;;;;;13.23;100.00;99487.03;5084851;28;20295;-81
2023/04/07 11:20:57;;;;;;;;;;;;;;;13.23;100.00;99489.69;5063722;28;19920;-80
2023/04/07 11:23:24;;;;;;;;;;;;;;;13.24;100.00;99494.00;5084188;28;20020;-79
2023/04/07 11:25:51;;;;;;;;;;;;;;;13.18;100.00;99493.81;5082580;28;19939;-79
2023/04/07 11:28:17;;;;;;;;;;;;;;;13.21;100.00;99489.00;5084957;28;19935;-81
2023/04/07 11:30:48;;;;;;;;;;;;;;;13.20;100.00;99487.34;5081022;28;19916;-79
2023/04/07 11:33:15;;;;;;;;;;;;;;;13.26;100.00;99486.72;5092624;28;20396;-79
2023/04/07 11:35:47;;;;;;;;;;;;;;;13.27;100.00;99491.03;5083187;28;19923;-80
2023/04/07 11:38:12;;;;;;;;;;;;;;;13.31;100.00;99481.75;5080253;28;19916;-80
2023/04/07 11:40:38;;;;;;;;;;;;;;;13.26;100.00;99481.41;5083726;28;20436;-80
2023/04/07 11:43:23;;;;;;;;;;;;;;;13.06;100.00;99485.31;5083211;28;19927;-79
2023/04/07 11:46:07;;;;;;;;;;;;;;;12.86;100.00;99490.00;5084640;28;19916;-80
2023/04/07 11:48:33;;;;;;;;;;;;;;;12.75;100.00;99492.94;5082145;28;19939;-81
2023/04/07 11:50:59;;;;;;;;;;;;;;;12.69;100.00;99494.41;5085208;28;20361;-80
2023/04/07 11:53:28;;;;;;;;;;;;;;;12.43;100.00;99498.88;5082067;28;19961;-79
2023/04/07 11:56:01;;;;;;;;;;;;;;;12.25;100.00;99490.97;5085248;28;19995;-80
2023/04/07 11:58:26;;;;;;;;;;;;;;;12.16;100.00;99497.22;5081702;28;19961;-78
2023/04/07 12:00:56;;;;;;;;;;;;;;;12.10;100.00;99497.00;5084474;28;19916;-79
2023/04/07 12:03:22;;;;;;;;;;;;;;;11.99;100.00;99497.25;5081117;28;19923;-79
2023/04/07 12:05:47;;;;;;;;;;;;;;;11.80;100.00;99488.50;5082068;28;20380;-79
2023/04/07 12:08:14;;;;;;;;;;;;;;;11.71;100.00;99488.53;5083255;28;19923;-79
2023/04/07 12:10:40;;;;;;;;;;;;;;;11.60;100.00;99489.63;5062347;28;20454;-81
2023/04/07 12:13:06;;;;;;;;;;;;;;;11.52;100.00;99492.16;5084504;28;20025;-78
2023/04/07 12:15:32;;;;;;;;;;;;;;;11.46;100.00;99487.47;5080964;28;20344;-79
2023/04/07 12:17:57;;;;;;;;;;;;;;;11.39;100.00;99496.97;5081677;28;19916;-80
2023/04/07 12:20:22;;;;;;;;;;;;;;;11.34;100.00;99484.22;5084333;28;20325;-80
2023/04/07 12:22:48;;;;;;;;;;;;;;;11.29;100.00;99480.38;5080232;28;19916;-79
2023/04/07 12:25:13;;;;;;;;;;;;;;;11.24;100.00;99488.75;5064542;28;20014;-80
2023/04/07 12:27:38;;;;;;;;;;;;;;;11.21;100.00;99493.47;5082137;28;20430;-79
2023/04/07 12:30:04;;;;;;;;;;;;;;;11.06;100.00;99490.50;5081695;28;20279;-80
2023/04/07 12:32:31;;;;;;;;;;;;;;;10.99;100.00;99500.81;5081851;28;20363;-81
2023/04/07 12:34:57;;;;;;;;;;;;;;;10.95;100.00;99496.81;5087655;28;19937;-78
2023/04/07 12:37:22;;;;;;;;;;;;;;;10.84;100.00;99502.28;5080257;28;20029;-80
2023/04/07 12:39:49;;;;;;;;;;;;;;;10.81;100.00;99507.84;5085444;28;21386;-79
2023/04/07 12:42:16;;;;;;;;;;;;;;;10.77;100.00;99514.41;5088175;28;19974;-82
2023/04/07 12:44:41;;;;;;;;;;;;;;;10.66;100.00;99525.16;5086642;28;19985;-81
2023/04/07 12:47:07;;;;;;;;;;;;;;;10.53;100.00;99530.75;5086262;28;19954;-82